Time;durP1;ratioP1;P1;durP2;ratioP2;P2;SDS_P1;SDS_P2;PMS_P1;PMS_P2;Temp;Humidity;BMP_temperature;BMP_pressure;BME280_temperature;BME280_humidity;BME280_pressure;Samples;Min_cycle;Max_cycle;Signal;HPM_P1;HPM_P2
2022/06/11 00:01:35;;;;;;;13.23;12.10;;;;;;;16.17;100.00;92309.84;5088738;28;20250;-76
2022/06/11 00:04:05;;;;;;;14.03;13.03;;;;;;;16.19;100.00;92312.16;5089289;28;20781;-76
2022/06/11 00:06:34;;;;;;;14.37;13.10;;;;;;;15.97;100.00;92308.69;5112116;28;20222;-76
2022/06/11 00:09:00;;;;;;;14.90;13.70;;;;;;;16.07;100.00;92315.47;5088243;28;20177;-76
2022/06/11 00:11:26;;;;;;;14.63;13.43;;;;;;;16.20;100.00;92318.97;5088008;28;20242;-76
2022/06/11 00:13:52;;;;;;;12.90;12.00;;;;;;;16.12;100.00;92317.91;5088644;28;20294;-76
2022/06/11 00:16:20;;;;;;;14.57;12.93;;;;;;;16.00;100.00;92305.44;5079217;28;20245;-76
2022/06/11 00:18:47;;;;;;;13.10;12.10;;;;;;;16.06;100.00;92304.16;5068033;28;20749;-76
2022/06/11 00:21:13;;;;;;;12.57;11.43;;;;;;;16.07;100.00;92307.56;5068521;28;20233;-76
2022/06/11 00:23:40;;;;;;;11.57;10.70;;;;;;;16.05;100.00;92318.41;5069115;28;20178;-76
2022/06/11 00:26:07;;;;;;;13.73;12.60;;;;;;;16.08;100.00;92311.72;5068368;28;20225;-77
2022/06/11 00:28:33;;;;;;;12.97;11.87;;;;;;;16.04;100.00;92310.84;5068555;28;20192;-76
2022/06/11 00:30:59;;;;;;;12.47;11.57;;;;;;;16.03;100.00;92301.41;5068507;28;20218;-76
2022/06/11 00:33:25;;;;;;;12.97;11.77;;;;;;;16.01;100.00;92319.38;5068658;28;20214;-76
2022/06/11 00:35:51;;;;;;;12.47;11.47;;;;;;;15.91;100.00;92301.28;5065904;28;20231;-76
2022/06/11 00:38:18;;;;;;;12.77;11.87;;;;;;;16.02;100.00;92323.53;5070324;28;20250;-76
2022/06/11 00:40:46;;;;;;;13.03;11.93;;;;;;;16.06;100.00;92321.84;5070418;28;20230;-76
2022/06/11 00:43:17;;;;;;;14.30;13.07;;;;;;;16.01;100.00;92316.75;5071667;28;20173;-76
2022/06/11 00:45:57;;;;;;;13.57;12.50;;;;;;;15.93;100.00;92320.97;5071703;28;20229;-77
2022/06/11 00:48:30;;;;;;;13.90;12.73;;;;;;;15.79;100.00;92278.28;5072203;28;20181;-77
2022/06/11 00:51:03;;;;;;;14.20;13.10;;;;;;;16.04;100.00;92322.16;5072263;28;20274;-77
2022/06/11 00:53:32;;;;;;;13.50;12.47;;;;;;;15.73;100.00;92305.88;5071907;28;20201;-76
2022/06/11 00:55:58;;;;;;;14.17;12.87;;;;;;;15.72;100.00;92300.94;5071057;28;20229;-77
2022/06/11 00:58:28;;;;;;;13.33;12.23;;;;;;;15.86;100.00;92314.63;5072009;28;20181;-77
2022/06/11 01:00:56;;;;;;;12.97;11.93;;;;;;;16.05;100.00;92317.63;5071320;28;20236;-77
2022/06/11 01:03:27;;;;;;;13.57;12.57;;;;;;;15.79;100.00;92314.38;5072248;28;20178;-77
2022/06/11 01:06:11;;;;;;;13.57;12.47;;;;;;;15.66;100.00;92320.59;5070460;28;20233;-77
2022/06/11 01:08:42;;;;;;;13.10;11.93;;;;;;;15.74;100.00;92317.94;5071407;28;20169;-77
2022/06/11 01:11:30;;;;;;;14.33;13.13;;;;;;;15.68;100.00;92326.34;5071607;28;20229;-77
2022/06/11 01:14:02;;;;;;;14.23;13.07;;;;;;;15.83;100.00;92313.41;5071133;28;20202;-77
2022/06/11 01:16:35;;;;;;;14.30;11.90;;;;;;;15.84;100.00;92312.31;5071578;28;20260;-78
2022/06/11 01:19:03;;;;;;;13.87;12.77;;;;;;;15.76;100.00;92310.53;5069450;28;20205;-77
2022/06/11 01:22:00;;;;;;;13.53;12.43;;;;;;;15.67;100.00;92306.38;5094028;28;20230;-78
2022/06/11 01:24:58;;;;;;;12.87;11.77;;;;;;;15.55;100.00;92301.78;5071072;28;20186;-77
2022/06/11 01:27:57;;;;;;;12.53;11.40;;;;;;;15.62;100.00;92309.19;5071260;28;20248;-77
2022/06/11 01:30:26;;;;;;;12.47;11.47;;;;;;;15.67;100.00;92293.22;5071082;28;20204;-77
2022/06/11 01:33:07;;;;;;;14.20;13.00;;;;;;;15.59;100.00;92315.06;5070690;28;20228;-78
2022/06/11 01:35:57;;;;;;;13.70;12.37;;;;;;;15.65;100.00;92319.84;5071243;28;20248;-77
2022/06/11 01:38:25;;;;;;;13.20;12.10;;;;;;;15.67;100.00;92316.91;5070749;28;20196;-77
2022/06/11 01:40:53;;;;;;;12.73;11.77;;;;;;;15.65;100.00;92311.97;5070195;28;20312;-78
2022/06/11 01:43:33;;;;;;;14.87;13.13;;;;;;;15.61;100.00;92323.44;5070501;28;20284;-78
2022/06/11 01:46:02;;;;;;;14.30;13.10;;;;;;;15.78;100.00;92313.59;5069841;28;20232;-78
2022/06/11 01:48:29;;;;;;;13.43;12.20;;;;;;;15.57;100.00;92317.25;5087033;28;20201;-78
2022/06/11 01:51:13;;;;;;;13.63;12.43;;;;;;;15.74;100.00;92325.06;5070586;28;20221;-78
2022/06/11 01:53:47;;;;;;;13.77;12.63;;;;;;;15.70;100.00;92311.75;5070141;28;20209;-77
2022/06/11 01:56:43;;;;;;;12.70;11.80;;;;;;;15.58;100.00;92309.03;5069759;28;20243;-78
2022/06/11 01:59:31;;;;;;;13.17;11.97;;;;;;;15.61;100.00;92315.53;5070928;28;20259;-78
2022/06/11 02:02:16;;;;;;;13.33;12.13;;;;;;;15.81;100.00;92328.75;5070672;28;20228;-78
2022/06/11 02:05:29;;;;;;;13.67;12.47;;;;;;;15.79;100.00;92319.63;5095141;28;20182;-77
2022/06/11 02:08:22;;;;;;;13.37;12.30;;;;;;;15.80;100.00;92321.16;5072674;28;20238;-77
2022/06/11 02:10:51;;;;;;;13.60;12.40;;;;;;;15.84;100.00;92322.09;5089444;28;20248;-77
2022/06/11 02:13:44;;;;;;;13.20;12.17;;;;;;;15.88;100.00;92318.50;5091034;28;20197;-77
2022/06/11 02:16:21;;;;;;;12.83;11.73;;;;;;;15.79;100.00;92317.00;5081909;28;20216;-78
2022/06/11 02:18:50;;;;;;;13.23;12.20;;;;;;;15.91;100.00;92322.34;5070299;28;20223;-77
2022/06/11 02:21:19;;;;;;;14.30;13.07;;;;;;;15.91;100.00;92319.72;5078724;28;20217;-77
2022/06/11 02:23:51;;;;;;;12.03;11.07;;;;;;;15.93;100.00;92323.59;5090133;28;20233;-77
2022/06/11 02:26:38;;;;;;;13.43;12.33;;;;;;;15.91;100.00;92323.13;5089444;28;20228;-78
2022/06/11 02:29:06;;;;;;;12.30;11.20;;;;;;;15.98;100.00;92320.00;5088606;28;20191;-77
2022/06/11 02:31:38;;;;;;;12.67;11.70;;;;;;;15.93;100.00;92323.59;5089739;28;20232;-77
2022/06/11 02:34:05;;;;;;;11.97;11.07;;;;;;;15.95;100.00;92324.03;5090277;28;20212;-77
2022/06/11 02:36:42;;;;;;;12.23;11.33;;;;;;;15.92;100.00;92321.28;5090545;28;20279;-78
2022/06/11 02:39:09;;;;;;;12.27;11.27;;;;;;;15.86;100.00;92319.91;5089597;28;20191;-77
2022/06/11 02:41:35;;;;;;;12.37;11.37;;;;;;;15.75;100.00;92313.47;5089113;28;20216;-77
2022/06/11 02:44:00;;;;;;;11.57;10.87;;;;;;;15.75;100.00;92310.84;5089722;28;20207;-77
2022/06/11 02:46:41;;;;;;;12.10;11.03;;;;;;;15.77;100.00;92308.63;5089924;28;20220;-78
2022/06/11 02:49:13;;;;;;;12.40;11.40;;;;;;;15.79;100.00;92309.09;5088880;28;20188;-78
2022/06/11 02:51:39;;;;;;;12.40;11.43;;;;;;;15.88;100.00;92323.00;5088662;28;20905;-77
2022/06/11 02:54:04;;;;;;;11.40;10.57;;;;;;;15.73;100.00;92334.06;5090215;28;20270;-78
2022/06/11 02:56:30;;;;;;;12.10;11.30;;;;;;;15.67;100.00;92309.00;5088930;28;20228;-78
2022/06/11 02:58:56;;;;;;;12.70;11.70;;;;;;;15.92;100.00;92326.56;5088700;28;20185;-77
2022/06/11 03:01:22;;;;;;;12.13;11.33;;;;;;;15.96;100.00;92330.09;5089449;28;20300;-77
2022/06/11 03:03:49;;;;;;;12.77;11.87;;;;;;;15.89;100.00;92320.03;5089741;28;20199;-77
2022/06/11 03:06:19;;;;;;;12.90;11.90;;;;;;;15.70;100.00;92327.56;5089646;28;20227;-77
2022/06/11 03:08:46;;;;;;;12.10;11.30;;;;;;;15.57;100.00;92310.13;5090152;28;20196;-77
2022/06/11 03:11:12;;;;;;;12.60;11.40;;;;;;;15.64;100.00;92307.00;5089411;28;20224;-77
2022/06/11 03:13:38;;;;;;;12.27;11.30;;;;;;;15.74;100.00;92325.84;5088942;28;20215;-77
2022/06/11 03:16:04;;;;;;;12.90;12.00;;;;;;;15.75;100.00;92334.53;5087511;28;20221;-77
2022/06/11 03:18:29;;;;;;;11.37;10.63;;;;;;;15.77;100.00;92337.59;5089988;28;20180;-77
2022/06/11 03:20:55;;;;;;;12.27;11.37;;;;;;;15.76;100.00;92336.06;5088841;28;20220;-77
2022/06/11 03:23:21;;;;;;;12.87;11.50;;;;;;;15.63;100.00;92329.91;5090020;28;20215;-77
2022/06/11 03:25:47;;;;;;;12.50;11.53;;;;;;;15.76;100.00;92346.59;5114569;28;20255;-77
2022/06/11 03:28:17;;;;;;;12.53;11.73;;;;;;;15.57;100.00;92320.66;5089501;28;20199;-77
2022/06/11 03:30:43;;;;;;;12.00;11.13;;;;;;;15.51;100.00;92306.13;5088808;28;20754;-77
2022/06/11 03:33:09;;;;;;;12.20;11.33;;;;;;;15.63;100.00;92321.25;5089495;28;20237;-77
2022/06/11 03:35:34;;;;;;;12.10;11.30;;;;;;;15.83;100.00;92347.63;5088853;28;20213;-77
2022/06/11 03:38:01;;;;;;;11.87;11.00;;;;;;;15.87;100.00;92345.16;5089487;28;20189;-77
2022/06/11 03:40:27;;;;;;;13.03;11.93;;;;;;;15.89;100.00;92333.22;5088526;28;20172;-77
2022/06/11 03:42:52;;;;;;;12.57;11.67;;;;;;;15.98;100.00;92343.72;5089493;28;20185;-77
2022/06/11 03:45:18;;;;;;;12.40;11.60;;;;;;;16.08;100.00;92347.84;5088584;28;20200;-78
2022/06/11 03:47:46;;;;;;;12.13;11.27;;;;;;;16.13;100.00;92339.75;5089105;28;20236;-78
2022/06/11 03:50:22;;;;;;;13.57;12.57;;;;;;;16.03;100.00;92325.09;5088496;28;20196;-79
2022/06/11 03:52:48;;;;;;;11.67;10.87;;;;;;;16.10;100.00;92335.91;5112279;28;20212;-78
2022/06/11 03:55:14;;;;;;;11.90;11.00;;;;;;;16.09;100.00;92334.38;5089349;28;20216;-78
2022/06/11 03:57:40;;;;;;;12.53;11.63;;;;;;;16.17;100.00;92343.31;5089351;28;20189;-79
2022/06/11 04:00:09;;;;;;;12.87;12.00;;;;;;;16.04;100.00;92329.28;5089458;28;20208;-78
2022/06/11 04:02:35;;;;;;;13.40;12.40;;;;;;;16.19;100.00;92343.75;5088187;28;20216;-77
2022/06/11 04:05:01;;;;;;;13.37;12.40;;;;;;;16.02;100.00;92313.78;5088770;28;20745;-78
2022/06/11 04:07:26;;;;;;;13.07;12.07;;;;;;;16.23;100.00;92347.28;5084615;28;20236;-79
2022/06/11 04:09:52;;;;;;;12.70;11.80;;;;;;;16.06;100.00;92319.94;5085841;28;20195;-81
2022/06/11 04:12:18;;;;;;;11.90;11.13;;;;;;;16.23;100.00;92334.91;5072435;28;20227;-78
2022/06/11 04:14:46;;;;;;;12.03;10.87;;;;;;;16.43;100.00;92343.91;5086848;28;20205;-78
2022/06/11 04:17:28;;;;;;;11.77;11.00;;;;;;;16.35;100.00;92324.44;5070605;28;20244;-78
2022/06/11 04:19:54;;;;;;;11.87;10.87;;;;;;;16.42;100.00;92358.94;5071539;28;20212;-79
2022/06/11 04:22:20;;;;;;;11.70;10.90;;;;;;;16.34;100.00;92351.09;5089086;28;20236;-80
2022/06/11 04:24:47;;;;;;;11.67;10.67;;;;;;;16.28;100.00;92353.13;5092642;28;20195;-77
2022/06/11 04:27:14;;;;;;;11.37;10.67;;;;;;;16.29;100.00;92354.69;5092328;28;20289;-78
2022/06/11 04:29:46;;;;;;;11.83;11.03;;;;;;;16.51;100.00;92366.84;5090770;28;20180;-73
2022/06/11 04:32:15;;;;;;;12.13;11.33;;;;;;;16.49;100.00;92372.44;5090809;28;20227;-71
2022/06/11 04:34:42;;;;;;;11.70;10.90;;;;;;;16.35;100.00;92353.41;5091304;28;20291;-71
2022/06/11 04:37:13;;;;;;;13.00;11.90;;;;;;;16.36;100.00;92370.75;5091461;28;20271;-73
2022/06/11 04:39:41;;;;;;;12.53;11.53;;;;;;;16.23;100.00;92374.41;5089403;28;20177;-75
2022/06/11 04:42:09;;;;;;;11.83;10.93;;;;;;;16.26;100.00;92386.94;5090666;28;20284;-77
2022/06/11 04:44:36;;;;;;;13.33;12.23;;;;;;;16.27;100.00;92383.22;5090936;28;20192;-78
2022/06/11 04:47:02;;;;;;;13.60;12.60;;;;;;;16.22;100.00;92364.19;5088671;28;20217;-78
2022/06/11 04:49:28;;;;;;;13.40;12.27;;;;;;;16.32;100.00;92385.66;5091336;28;20189;-78
2022/06/11 04:51:53;;;;;;;13.20;12.30;;;;;;;16.30;100.00;92374.66;5091085;28;20232;-75
2022/06/11 04:54:19;;;;;;;12.93;11.93;;;;;;;16.38;100.00;92386.25;5090223;28;20215;-77
2022/06/11 04:56:44;;;;;;;13.30;12.20;;;;;;;16.40;100.00;92387.50;5090625;28;20228;-77
2022/06/11 04:59:10;;;;;;;13.07;12.00;;;;;;;16.37;100.00;92374.97;5090731;28;20184;-77
2022/06/11 05:01:37;;;;;;;12.50;11.57;;;;;;;16.40;100.00;92391.97;5091243;28;20217;-76
2022/06/11 05:04:02;;;;;;;13.27;12.30;;;;;;;16.47;100.00;92395.69;5090884;28;20196;-77
2022/06/11 05:06:32;;;;;;;13.60;12.30;;;;;;;16.44;100.00;92391.06;5091572;28;20225;-76
2022/06/11 05:08:58;;;;;;;13.43;12.33;;;;;;;16.54;100.00;92405.72;5089573;28;20181;-74
2022/06/11 05:11:24;;;;;;;14.33;13.27;;;;;;;16.57;100.00;92391.91;5091123;28;20212;-74
2022/06/11 05:13:50;;;;;;;14.00;12.90;;;;;;;16.75;100.00;92404.66;5091222;28;20212;-76
2022/06/11 05:16:18;;;;;;;14.20;13.10;;;;;;;16.67;100.00;92391.53;5091049;28;20239;-80
2022/06/11 05:18:43;;;;;;;13.90;12.83;;;;;;;16.73;100.00;92414.75;5091347;28;20180;-76
2022/06/11 05:21:09;;;;;;;13.33;12.33;;;;;;;16.80;100.00;92412.38;5089181;28;20213;-76
2022/06/11 05:23:34;;;;;;;14.00;12.93;;;;;;;16.61;100.00;92398.84;5089536;28;20161;-76
2022/06/11 05:26:00;;;;;;;14.73;13.63;;;;;;;16.60;100.00;92392.06;5091082;28;20232;-76
2022/06/11 05:28:29;;;;;;;12.77;11.83;;;;;;;16.59;100.00;92398.38;5091019;28;20280;-76
2022/06/11 05:30:56;;;;;;;14.80;13.60;;;;;;;16.66;100.00;92406.56;5089064;28;20223;-75
2022/06/11 05:33:22;;;;;;;14.17;12.97;;;;;;;16.94;100.00;92415.53;5089634;28;20227;-76
2022/06/11 05:35:49;;;;;;;13.33;12.33;;;;;;;17.04;100.00;92423.06;5089102;28;20224;-76
2022/06/11 05:38:19;;;;;;;13.30;12.30;;;;;;;17.17;100.00;92415.97;5090785;28;20196;-85
2022/06/11 05:40:47;;;;;;;12.57;11.57;;;;;;;17.21;100.00;92420.28;5082164;28;20234;-82
2022/06/11 05:43:13;;;;;;;13.63;12.73;;;;;;;16.95;100.00;92424.22;5069127;28;20249;-83
2022/06/11 05:45:53;;;;;;;12.30;11.50;;;;;;;16.88;100.00;92439.78;5072012;28;20235;-76
2022/06/11 05:48:21;;;;;;;12.20;11.50;;;;;;;16.58;100.00;92398.72;5088865;28;20181;-74
2022/06/11 05:50:52;;;;;;;12.77;11.93;;;;;;;16.67;100.00;92441.63;5087984;28;20251;-75
2022/06/11 05:53:20;;;;;;;13.77;12.80;;;;;;;16.70;100.00;92439.09;5089351;28;20808;-79
2022/06/11 05:55:48;;;;;;;11.23;10.63;;;;;;;16.73;100.00;92432.44;5088342;28;20773;-80
2022/06/11 05:58:20;;;;;;;11.50;10.80;;;;;;;16.68;100.00;92441.31;5090968;28;20177;-79
2022/06/11 06:00:46;;;;;;;10.80;10.20;;;;;;;16.56;100.00;92441.19;5087377;28;20232;-78
2022/06/11 06:03:12;;;;;;;10.93;10.37;;;;;;;16.77;100.00;92457.06;5087497;28;20200;-80
2022/06/11 06:05:39;;;;;;;10.47;9.97;;;;;;;16.55;100.00;92452.84;5086255;28;20221;-78
2022/06/11 06:08:05;;;;;;;10.93;10.33;;;;;;;17.01;100.00;92450.06;5069886;28;20193;-78
2022/06/11 06:10:31;;;;;;;10.03;9.53;;;;;;;17.16;100.00;92454.00;5071711;28;20182;-79
2022/06/11 06:12:56;;;;;;;9.70;9.10;;;;;;;17.24;100.00;92453.19;5090182;28;20261;-87
2022/06/11 06:15:25;;;;;;;9.93;9.23;;;;;;;17.32;100.00;92445.19;5090302;28;20212;-88
2022/06/11 06:17:52;;;;;;;9.60;9.10;;;;;;;17.22;100.00;92450.06;5088379;28;21008;-85
2022/06/11 06:20:20;;;;;;;9.17;8.67;;;;;;;17.15;100.00;92447.94;5089510;28;20192;-84
2022/06/11 06:22:47;;;;;;;9.53;8.93;;;;;;;17.05;100.00;92447.56;5090106;28;20194;-82
2022/06/11 06:25:16;;;;;;;8.60;8.10;;;;;;;17.16;100.00;92462.72;5088783;28;20193;-83
2022/06/11 06:27:42;;;;;;;8.93;8.53;;;;;;;17.11;100.00;92460.25;5088577;28;20235;-76
2022/06/11 06:30:08;;;;;;;9.87;9.17;;;;;;;17.08;100.00;92463.53;5088840;28;20192;-77
2022/06/11 06:32:34;;;;;;;10.07;9.43;;;;;;;17.13;100.00;92454.66;5086866;28;20213;-76
2022/06/11 06:35:00;;;;;;;10.33;9.73;;;;;;;17.07;100.00;92467.28;5086068;28;20749;-76
2022/06/11 06:37:25;;;;;;;10.70;10.10;;;;;;;17.06;100.00;92473.63;5088745;28;20240;-75
2022/06/11 06:39:51;;;;;;;10.80;10.10;;;;;;;16.97;100.00;92474.78;5089852;28;20249;-79
2022/06/11 06:42:17;;;;;;;12.27;11.23;;;;;;;17.07;100.00;92467.28;5087016;28;20224;-76
2022/06/11 06:44:43;;;;;;;11.00;10.30;;;;;;;17.10;100.00;92474.53;5089027;28;20207;-90
2022/06/11 06:47:08;;;;;;;9.90;9.33;;;;;;;17.09;100.00;92472.22;5089307;28;20232;-90
2022/06/11 06:49:33;;;;;;;10.90;10.20;;;;;;;16.95;100.00;92459.28;5088918;28;20185;-75
2022/06/11 06:51:59;;;;;;;10.20;9.53;;;;;;;17.01;100.00;92475.69;5087656;28;20220;-75
2022/06/11 06:54:24;;;;;;;10.23;9.53;;;;;;;17.03;100.00;92476.91;5089790;28;20205;-76
2022/06/11 06:56:50;;;;;;;10.57;9.90;;;;;;;17.07;100.00;92469.91;5087551;28;20230;-76
2022/06/11 06:59:16;;;;;;;9.40;8.90;;;;;;;17.39;100.00;92477.13;5088662;28;20165;-73
2022/06/11 07:01:42;;;;;;;8.87;8.37;;;;;;;17.56;100.00;92473.56;5085858;28;20277;-76
2022/06/11 07:04:07;;;;;;;9.33;8.83;;;;;;;17.66;100.00;92473.19;5088188;28;20201;-75
2022/06/11 07:06:34;;;;;;;9.80;9.23;;;;;;;18.01;98.74;92465.72;5088438;28;20221;-84
2022/06/11 07:09:00;;;;;;;9.50;9.00;;;;;;;18.17;96.19;92479.81;5089231;28;20181;-78
2022/06/11 07:11:25;;;;;;;11.87;11.17;;;;;;;17.98;97.25;92458.44;5088119;28;20220;-81
2022/06/11 07:13:51;;;;;;;9.63;9.03;;;;;;;18.38;95.70;92480.56;5088312;28;20277;-81
2022/06/11 07:16:27;;;;;;;10.30;9.77;;;;;;;18.26;95.95;92465.41;5087501;28;20250;-82
2022/06/11 07:18:57;;;;;;;8.80;8.40;;;;;;;18.35;95.26;92483.84;5089170;28;20223;-81
2022/06/11 07:21:28;;;;;;;8.57;8.17;;;;;;;17.95;94.53;92474.91;5088388;28;20204;-81
2022/06/11 07:24:04;;;;;;;9.73;9.30;;;;;;;18.20;94.73;92482.59;5087605;28;20180;-86
2022/06/11 07:26:34;;;;;;;9.67;9.27;;;;;;;18.20;96.00;92490.50;5084441;28;20217;-78
2022/06/11 07:29:13;;;;;;;10.90;10.30;;;;;;;18.17;92.89;92479.81;5087067;28;20184;-86
2022/06/11 07:31:40;;;;;;;9.80;9.30;;;;;;;18.33;92.52;92488.66;5085242;28;20222;-85
2022/06/11 07:34:06;;;;;;;10.73;9.93;;;;;;;18.44;91.08;92495.09;5085416;28;20259;-88
2022/06/11 07:36:32;;;;;;;10.50;9.90;;;;;;;18.21;93.10;92483.38;5087568;28;20229;-88
2022/06/11 07:38:57;;;;;;;14.10;13.27;;;;;;;18.28;93.18;92496.81;5085775;28;20203;-88
2022/06/11 07:41:23;;;;;;;10.80;10.10;;;;;;;18.29;92.12;92495.72;5084306;28;20220;-87
2022/06/11 07:43:48;;;;;;;10.80;10.20;;;;;;;18.32;92.41;92481.84;5085133;28;20175;-87
2022/06/11 07:46:14;;;;;;;9.53;9.03;;;;;;;18.40;93.73;92491.56;5087089;28;20236;-87
2022/06/11 07:48:40;;;;;;;10.30;9.70;;;;;;;18.70;92.81;92500.84;5086756;28;20201;-88
2022/06/11 07:51:05;;;;;;;10.50;9.97;;;;;;;18.88;92.69;92497.66;5084533;28;20221;-88
2022/06/11 07:53:32;;;;;;;11.13;10.43;;;;;;;19.03;89.13;92489.06;5087497;28;20192;-89
2022/06/11 07:55:58;;;;;;;10.50;9.90;;;;;;;19.51;88.43;92512.03;5078839;28;20237;-87
2022/06/11 07:58:32;;;;;;;9.83;9.33;;;;;;;19.73;88.03;92514.19;5068743;28;20186;-87
2022/06/11 08:00:58;;;;;;;9.97;9.47;;;;;;;19.72;85.87;92480.84;5073860;28;20230;-87
2022/06/11 08:03:27;;;;;;;10.80;10.03;;;;;;;19.61;88.69;92485.06;5087543;28;20202;-89
2022/06/11 08:05:53;;;;;;;10.77;9.87;;;;;;;20.33;86.27;92499.91;5088199;28;20230;-90
2022/06/11 08:08:20;;;;;;;10.35;9.75;;;;;;;20.56;79.05;92508.84;5088002;28;20279;-84
2022/06/11 08:10:47;;;;;;;9.93;9.30;;;;;;;20.21;83.65;92508.72;5087766;28;20238;-83
2022/06/11 08:13:13;;;;;;;9.90;9.30;;;;;;;21.06;78.70;92508.91;5088044;28;20195;-81
2022/06/11 08:15:40;;;;;;;9.57;8.93;;;;;;;21.66;76.32;92518.22;5086426;28;21643;-81
2022/06/11 08:18:07;;;;;;;9.43;8.85;;;;;;;21.61;77.26;92519.25;5088175;28;20244;-81
2022/06/11 08:20:34;;;;;;;9.98;9.38;;;;;;;21.62;75.45;92518.13;5087731;28;20264;-81
2022/06/11 08:23:01;;;;;;;9.70;9.20;;;;;;;20.71;79.56;92516.03;5088635;28;20180;-84
2022/06/11 08:25:27;;;;;;;9.98;9.38;;;;;;;21.14;76.81;92492.03;5088697;28;20219;-80
2022/06/11 08:27:53;;;;;;;9.80;9.20;;;;;;;21.76;75.79;92520.34;5087280;28;20214;-80
2022/06/11 08:30:21;;;;;;;9.15;8.73;;;;;;;22.06;67.50;92516.00;5087876;28;20187;-80
2022/06/11 08:32:47;;;;;;;10.60;9.98;;;;;;;21.61;69.79;92515.81;5088235;28;20199;-80
2022/06/11 08:35:14;;;;;;;10.23;9.63;;;;;;;21.65;72.04;92511.38;5088067;28;20985;-80
2022/06/11 08:37:39;;;;;;;10.20;9.60;;;;;;;21.08;69.90;92500.59;5087912;28;20293;-81
2022/06/11 08:40:11;;;;;;;10.43;9.82;;;;;;;20.01;79.97;92499.06;5086625;28;20183;-81
2022/06/11 08:42:41;;;;;;;10.33;9.60;;;;;;;20.26;79.78;92499.72;5085580;28;20263;-80
2022/06/11 08:45:26;;;;;;;10.07;9.38;;;;;;;19.90;83.13;92500.66;5088218;28;20199;-79
2022/06/11 08:48:00;;;;;;;9.67;9.13;;;;;;;19.54;83.69;92492.84;5087279;28;20215;-80
2022/06/11 08:50:36;;;;;;;9.27;8.77;;;;;;;19.31;79.04;92460.03;5085820;28;20273;-80
2022/06/11 08:53:04;;;;;;;10.73;10.13;;;;;;;19.54;78.30;92506.06;5088266;28;20191;-79
2022/06/11 08:55:34;;;;;;;11.17;10.27;;;;;;;19.54;82.01;92503.41;5086346;28;20214;-80
2022/06/11 08:58:25;;;;;;;10.00;9.40;;;;;;;20.13;80.14;92506.16;5089160;28;20185;-79
2022/06/11 09:01:06;;;;;;;10.00;9.37;;;;;;;20.48;77.32;92499.91;5089356;28;20372;-80
2022/06/11 09:04:06;;;;;;;10.00;9.40;;;;;;;20.79;75.42;92506.34;5090296;28;20255;-80
2022/06/11 09:06:57;;;;;;;11.00;10.10;;;;;;;20.71;77.07;92484.19;5066239;28;20234;-81
2022/06/11 09:09:53;;;;;;;9.63;8.93;;;;;;;20.15;79.09;92469.53;5089213;28;20196;-79
2022/06/11 09:12:36;;;;;;;10.43;9.83;;;;;;;20.49;78.75;92501.47;5090514;28;21004;-79
2022/06/11 09:15:05;;;;;;;10.70;9.70;;;;;;;20.88;74.43;92504.28;5091368;28;20245;-80
2022/06/11 09:17:58;;;;;;;10.57;9.87;;;;;;;20.58;78.51;92498.63;5090290;28;20223;-81
2022/06/11 09:20:23;;;;;;;9.90;9.30;;;;;;;19.74;79.40;92494.53;5088331;28;20263;-79
2022/06/11 09:23:10;;;;;;;10.97;10.23;;;;;;;20.62;78.63;92494.97;5086737;28;20205;-78
2022/06/11 09:26:01;;;;;;;10.48;9.85;;;;;;;21.24;71.99;92504.78;5088339;28;20302;-82
2022/06/11 09:29:01;;;;;;;10.03;9.37;;;;;;;21.16;75.19;92504.97;5089538;28;20197;-79
2022/06/11 09:31:29;;;;;;;9.88;9.15;;;;;;;22.06;69.06;92505.38;5085689;28;20236;-76
2022/06/11 09:34:41;;;;;;;9.95;9.35;;;;;;;22.09;68.66;92504.66;5087003;28;20268;-76
2022/06/11 09:37:14;;;;;;;10.02;9.30;;;;;;;21.82;69.90;92506.41;5057146;28;20403;-78
2022/06/11 09:39:49;;;;;;;9.98;9.35;;;;;;;21.77;71.42;92509.38;5070161;28;20200;-78
2022/06/11 09:42:38;;;;;;;9.50;8.90;;;;;;;21.78;72.86;92505.59;5067302;28;20218;-77
2022/06/11 09:45:14;;;;;;;10.75;9.98;;;;;;;21.28;72.62;92515.47;5083895;28;20210;-79
2022/06/11 09:47:55;;;;;;;11.27;10.48;;;;;;;20.95;74.50;92512.44;5066771;28;20221;-77
2022/06/11 09:50:33;;;;;;;11.15;10.00;;;;;;;20.41;76.13;92513.00;5070756;28;20212;-74
2022/06/11 09:53:31;;;;;;;9.73;9.13;;;;;;;20.71;75.07;92518.69;5088972;28;20197;-76
2022/06/11 09:56:12;;;;;;;11.15;10.35;;;;;;;20.44;75.37;92511.56;5099340;28;20308;-77
2022/06/11 09:59:09;;;;;;;9.40;8.80;;;;;;;20.08;80.71;92515.13;5105642;28;20180;-77
2022/06/11 10:01:58;;;;;;;9.80;9.27;;;;;;;19.55;81.18;92523.50;5080972;28;20216;-73
2022/06/11 10:04:29;;;;;;;10.27;9.68;;;;;;;19.90;79.00;92516.56;5088933;28;20255;-77
2022/06/11 10:06:58;;;;;;;10.38;9.60;;;;;;;19.48;82.61;92493.41;5088764;28;20251;-75
2022/06/11 10:10:00;;;;;;;10.32;9.57;;;;;;;19.69;80.64;92497.41;5088107;28;20300;-80
2022/06/11 10:12:34;;;;;;;10.40;9.70;;;;;;;19.94;81.15;92501.50;5090282;28;20315;-74
2022/06/11 10:15:13;;;;;;;11.43;10.70;;;;;;;20.35;79.66;92514.38;5089490;28;20211;-76
2022/06/11 10:17:53;;;;;;;11.30;10.50;;;;;;;20.27;79.82;92517.19;5086303;28;20211;-76
2022/06/11 10:20:49;;;;;;;10.20;9.53;;;;;;;20.03;82.01;92525.97;5088354;28;20182;-77
2022/06/11 10:23:28;;;;;;;10.93;10.27;;;;;;;19.84;82.36;92493.28;5082376;28;20188;-75
2022/06/11 10:26:02;;;;;;;10.53;9.93;;;;;;;20.05;79.39;92526.41;5086517;28;20249;-75
2022/06/11 10:28:40;;;;;;;11.60;10.80;;;;;;;19.68;78.26;92500.41;5088451;28;20186;-86
2022/06/11 10:31:34;;;;;;;11.40;10.63;;;;;;;19.56;82.26;92503.09;5088061;28;20290;-87
2022/06/11 10:34:29;;;;;;;11.90;10.97;;;;;;;19.79;84.85;92528.75;5088774;28;20233;-84
2022/06/11 10:37:01;;;;;;;11.87;10.97;;;;;;;19.12;87.20;92441.28;5088368;28;20231;-82
2022/06/11 10:39:29;;;;;;;11.30;10.60;;;;;;;19.71;86.79;92537.59;5101843;28;20199;-77
2022/06/11 10:42:11;;;;;;;10.37;9.57;;;;;;;19.60;86.63;92536.50;5088088;28;20237;-73
2022/06/11 10:44:41;;;;;;;12.73;11.73;;;;;;;19.41;91.60;92536.31;5088919;28;20222;-73
2022/06/11 10:47:20;;;;;;;19.27;17.23;;;;;;;19.29;93.58;92539.00;5088060;28;20206;-74
2022/06/11 10:49:49;;;;;;;15.83;14.43;;;;;;;18.36;97.63;92519.72;5087331;28;20183;-75
2022/06/11 10:52:36;;;;;;;12.03;10.80;;;;;;;17.99;99.08;92529.44;5085422;28;20225;-74
2022/06/11 10:55:03;;;;;;;10.10;9.30;;;;;;;17.66;97.65;92523.34;5087522;28;20202;-74
2022/06/11 10:57:31;;;;;;;11.10;10.30;;;;;;;17.08;99.57;92542.66;5086566;28;20794;-75
2022/06/11 11:00:14;;;;;;;10.87;10.27;;;;;;;16.64;100.00;92552.97;5087818;28;20204;-75
2022/06/11 11:02:45;;;;;;;10.73;9.93;;;;;;;16.66;100.00;92563.97;5067429;28;20290;-75
2022/06/11 11:05:14;;;;;;;15.40;13.63;;;;;;;16.55;100.00;92562.75;5067154;28;20181;-75
2022/06/11 11:08:00;;;;;;;9.97;9.37;;;;;;;16.03;100.00;92559.47;5086583;28;20208;-75
2022/06/11 11:10:34;;;;;;;10.60;9.90;;;;;;;16.18;100.00;92564.25;5085635;28;20207;-75
2022/06/11 11:13:03;;;;;;;10.47;9.83;;;;;;;16.25;100.00;92558.50;5087639;28;20214;-75
2022/06/11 11:15:38;;;;;;;10.87;9.90;;;;;;;16.50;100.00;92566.34;5087630;28;20218;-74
2022/06/11 11:18:21;;;;;;;9.77;9.17;;;;;;;16.73;100.00;92554.47;5088159;28;20188;-75
2022/06/11 11:20:49;;;;;;;9.47;8.87;;;;;;;16.76;100.00;92569.66;5087790;28;20254;-74
2022/06/11 11:23:20;;;;;;;9.87;9.30;;;;;;;16.70;100.00;92552.47;5087380;28;20218;-76
2022/06/11 11:25:51;;;;;;;9.90;9.40;;;;;;;17.12;100.00;92559.41;5088427;28;20232;-75
2022/06/11 11:28:25;;;;;;;13.60;12.50;;;;;;;17.13;100.00;92560.97;5088753;28;20184;-75
2022/06/11 11:31:03;;;;;;;11.50;10.37;;;;;;;17.22;100.00;92548.47;5085119;28;20263;-74
2022/06/11 11:33:35;;;;;;;14.07;12.77;;;;;;;17.77;100.00;92539.56;5086106;28;20216;-75
2022/06/11 11:36:03;;;;;;;14.23;12.83;;;;;;;18.32;98.81;92546.03;5084062;28;20848;-74
2022/06/11 11:38:28;;;;;;;10.77;10.00;;;;;;;18.20;95.03;92537.31;5086817;28;20196;-75